Time,TemperatureF,DewpointF,PressureIn,WindDirection,WindDirectionDegrees,WindSpeedMPH,WindSpeedGustMPH,Humidity,HourlyPrecipIn,Conditions,Clouds,dailyrainin,SoftwareType,DateUTC
2013-09-13 00:11:00,58.9,58.0,29.59,NNE,32,0.0,0.0,98,0.01,,,0.33,weatherlink.com 1.10,2013-09-13 04:11:00,
2013-09-13 00:26:00,58.9,58.0,29.59,NNE,32,0.0,0.0,98,0.01,,,0.33,weatherlink.com 1.10,2013-09-13 04:26:00,
2013-09-13 00:41:00,58.7,58.0,29.58,NNE,32,1.0,2.0,98,0.01,,,0.33,weatherlink.com 1.10,2013-09-13 04:41:00,
2013-09-13 00:56:00,58.8,58.0,29.58,NNE,32,0.0,1.0,98,0.00,,,0.33,weatherlink.com 1.10,2013-09-13 04:56:00,
2013-09-13 01:11:00,58.7,58.0,29.57,NNE,32,0.0,0.0,98,0.00,,,0.33,weatherlink.com 1.10,2013-09-13 05:11:00,
2013-09-13 01:26:00,58.5,58.0,29.57,NNE,32,0.0,0.0,98,0.00,,,0.33,weatherlink.com 1.10,2013-09-13 05:26:00,
2013-09-13 01:41:00,58.5,58.0,29.57,NNE,32,0.0,2.0,98,0.00,,,0.33,weatherlink.com 1.10,2013-09-13 05:41:00,
2013-09-13 01:56:00,58.4,58.0,29.57,NNE,32,0.0,1.0,98,0.00,,,0.33,weatherlink.com 1.10,2013-09-13 05:56:00,
2013-09-13 02:11:00,58.5,58.0,29.56,NNE,32,0.0,2.0,98,0.00,,,0.33,weatherlink.com 1.10,2013-09-13 06:11:00,
2013-09-13 02:26:00,58.4,58.0,29.56,NNE,32,0.0,0.0,98,0.00,,,0.33,weatherlink.com 1.10,2013-09-13 06:26:00,
2013-09-13 02:41:00,58.3,58.0,29.55,NNE,32,0.0,0.0,98,0.00,,,0.33,weatherlink.com 1.10,2013-09-13 06:41:00,
2013-09-13 02:56:00,58.2,58.0,29.54,NNE,32,0.0,0.0,98,0.00,,,0.33,weatherlink.com 1.10,2013-09-13 06:56:00,
2013-09-13 03:11:00,58.3,58.0,29.55,NNE,32,1.0,2.0,98,0.00,,,0.33,weatherlink.com 1.10,2013-09-13 07:11:00,
2013-09-13 03:26:00,58.4,58.0,29.55,NNE,32,0.0,1.0,98,0.00,,,0.33,weatherlink.com 1.10,2013-09-13 07:26:00,
2013-09-13 03:41:00,58.4,58.0,29.54,NNE,32,0.0,1.0,98,0.00,,,0.33,weatherlink.com 1.10,2013-09-13 07:41:00,
2013-09-13 03:56:00,58.5,58.0,29.54,North,360,1.0,4.0,98,0.00,,,0.33,weatherlink.com 1.10,2013-09-13 07:56:00,
2013-09-13 04:11:00,58.5,58.0,29.54,North,9,2.0,3.0,98,0.00,,,0.33,weatherlink.com 1.10,2013-09-13 08:11:00,
2013-09-13 04:26:00,58.6,58.0,29.54,NE,34,0.0,3.0,99,0.00,,,0.33,weatherlink.com 1.10,2013-09-13 08:26:00,
2013-09-13 04:41:00,58.6,58.0,29.54,NE,34,2.0,8.0,99,0.00,,,0.33,weatherlink.com 1.10,2013-09-13 08:41:00,
2013-09-13 04:56:00,58.0,58.0,29.54,NNE,15,5.0,8.0,98,0.00,,,0.33,weatherlink.com 1.10,2013-09-13 08:56:00,
2013-09-13 05:11:00,57.7,57.0,29.54,NE,50,4.0,10.0,98,0.00,,,0.33,weatherlink.com 1.10,2013-09-13 09:11:00,
2013-09-13 05:26:00,57.2,56.0,29.54,NNW,341,5.0,17.0,97,0.00,,,0.33,weatherlink.com 1.10,2013-09-13 09:26:00,
2013-09-13 05:41:00,56.9,56.0,29.55,NE,42,6.0,10.0,97,0.00,,,0.33,weatherlink.com 1.10,2013-09-13 09:41:00,
2013-09-13 05:56:00,56.9,56.0,29.56,NE,34,3.0,13.0,97,0.00,,,0.33,weatherlink.com 1.10,2013-09-13 09:56:00,
2013-09-13 06:11:00,56.8,56.0,29.56,North,355,0.0,8.0,97,0.00,,,0.33,weatherlink.com 1.10,2013-09-13 10:11:00,
2013-09-13 06:26:00,56.7,56.0,29.56,ENE,59,1.0,10.0,98,0.00,,,0.33,weatherlink.com 1.10,2013-09-13 10:26:00,
2013-09-13 06:41:00,56.6,56.0,29.56,NE,38,4.0,8.0,98,0.00,,,0.33,weatherlink.com 1.10,2013-09-13 10:41:00,
2013-09-13 06:56:00,56.4,56.0,29.56,NE,38,0.0,6.0,98,0.00,,,0.33,weatherlink.com 1.10,2013-09-13 10:56:00,
2013-09-13 07:11:00,56.1,55.0,29.57,NNE,22,2.0,5.0,97,0.00,,,0.33,weatherlink.com 1.10,2013-09-13 11:11:00,
2013-09-13 07:26:00,56.0,55.0,29.56,North,360,6.0,12.0,97,0.00,,,0.33,weatherlink.com 1.10,2013-09-13 11:26:00,
2013-09-13 07:41:00,55.8,55.0,29.56,North,360,5.0,10.0,98,0.00,,,0.33,weatherlink.com 1.10,2013-09-13 11:41:00,
2013-09-13 07:56:00,56.0,56.0,29.57,NW,305,0.0,9.0,98,0.00,,,0.33,weatherlink.com 1.10,2013-09-13 11:56:00,
2013-09-13 08:11:00,55.9,55.0,29.56,North,350,5.0,13.0,97,0.00,,,0.33,weatherlink.com 1.10,2013-09-13 12:11:00,
2013-09-13 08:26:00,56.0,55.0,29.56,NE,56,4.0,8.0,96,0.00,,,0.33,weatherlink.com 1.10,2013-09-13 12:26:00,
2013-09-13 08:41:00,56.5,55.0,29.57,NNW,332,1.0,8.0,96,0.00,,,0.33,weatherlink.com 1.10,2013-09-13 12:41:00,
2013-09-13 08:57:00,57.8,56.0,29.57,NE,39,4.0,8.0,95,0.00,,,0.33,weatherlink.com 1.10,2013-09-13 12:57:00,
2013-09-13 09:12:00,57.6,56.0,29.57,SE,146,1.0,7.0,93,0.00,,,0.33,weatherlink.com 1.10,2013-09-13 13:12:00,
2013-09-13 09:27:00,58.6,56.0,29.57,WNW,292,2.0,10.0,92,0.00,,,0.33,weatherlink.com 1.10,2013-09-13 13:27:00,
2013-09-13 09:42:00,57.8,55.0,29.58,NNE,25,2.0,11.0,91,0.00,,,0.33,weatherlink.com 1.10,2013-09-13 13:42:00,
2013-09-13 09:57:00,57.2,56.0,29.58,NNW,348,2.0,9.0,94,0.00,,,0.33,weatherlink.com 1.10,2013-09-13 13:57:00,
2013-09-13 10:12:00,58.1,56.0,29.58,NE,49,4.0,13.0,93,0.00,,,0.33,weatherlink.com 1.10,2013-09-13 14:12:00,
2013-09-13 10:27:00,60.0,57.0,29.58,North,5,4.0,11.0,90,0.00,,,0.33,weatherlink.com 1.10,2013-09-13 14:27:00,
2013-09-13 10:42:00,60.7,57.0,29.58,NE,49,3.0,8.0,87,0.00,,,0.33,weatherlink.com 1.10,2013-09-13 14:42:00,
2013-09-13 10:57:00,60.4,57.0,29.58,North,5,0.0,11.0,87,0.00,,,0.33,weatherlink.com 1.10,2013-09-13 14:57:00,
2013-09-13 11:12:00,59.5,56.0,29.58,NNW,343,7.0,10.0,88,0.00,,,0.33,weatherlink.com 1.10,2013-09-13 15:12:00,
2013-09-13 11:27:00,59.9,55.0,29.58,North,355,10.0,18.0,84,0.00,,,0.33,weatherlink.com 1.10,2013-09-13 15:27:00,
2013-09-13 11:42:00,59.1,55.0,29.58,North,9,9.0,17.0,86,0.00,,,0.33,weatherlink.com 1.10,2013-09-13 15:42:00,
2013-09-13 11:57:00,59.4,55.0,29.59,NNW,344,2.0,13.0,86,0.00,,,0.33,weatherlink.com 1.10,2013-09-13 15:57:00,
2013-09-13 12:12:00,59.1,55.0,29.59,WNW,302,4.0,14.0,87,0.00,,,0.33,weatherlink.com 1.10,2013-09-13 16:12:00,
2013-09-13 12:27:00,58.7,55.0,29.60,NE,38,4.0,14.0,86,0.00,,,0.33,weatherlink.com 1.10,2013-09-13 16:27:00,
2013-09-13 12:42:00,59.0,55.0,29.59,ENE,71,7.0,12.0,86,0.00,,,0.33,weatherlink.com 1.10,2013-09-13 16:42:00,
2013-09-13 12:57:00,60.4,55.0,29.59,NNW,333,3.0,14.0,83,0.00,,,0.33,weatherlink.com 1.10,2013-09-13 16:57:00,
2013-09-13 13:12:00,60.0,55.0,29.59,NNE,32,8.0,12.0,83,0.00,,,0.33,weatherlink.com 1.10,2013-09-13 17:12:00,
2013-09-13 13:27:00,59.6,54.0,29.59,WNW,295,5.0,16.0,81,0.00,,,0.33,weatherlink.com 1.10,2013-09-13 17:27:00,
2013-09-13 13:42:00,59.0,54.0,29.59,NW,314,7.0,15.0,82,0.00,,,0.33,weatherlink.com 1.10,2013-09-13 17:42:00,
2013-09-13 13:57:00,57.2,52.0,29.60,NW,313,10.0,16.0,84,0.00,,,0.33,weatherlink.com 1.10,2013-09-13 17:57:00,
2013-09-13 14:12:00,56.5,53.0,29.60,NW,317,16.0,16.0,87,0.00,,,0.33,weatherlink.com 1.10,2013-09-13 18:12:00,
2013-09-13 14:27:00,56.4,54.0,29.60,NNE,22,7.0,12.0,90,0.00,,,0.33,weatherlink.com 1.10,2013-09-13 18:27:00,
2013-09-13 14:42:00,57.1,54.0,29.60,NW,326,9.0,17.0,88,0.00,,,0.33,weatherlink.com 1.10,2013-09-13 18:42:00,
2013-09-13 14:57:00,56.9,53.0,29.60,North,11,9.0,15.0,85,0.00,,,0.00,weatherlink.com 1.10,2013-09-13 18:57:00,
2013-09-13 15:12:00,56.7,52.0,29.61,NNW,339,6.0,14.0,84,0.00,,,0.00,weatherlink.com 1.10,2013-09-13 19:12:00,
2013-09-13 15:27:00,55.3,52.0,29.62,NW,324,6.0,15.0,87,0.00,,,0.00,weatherlink.com 1.10,2013-09-13 19:27:00,
2013-09-13 15:42:00,54.2,53.0,29.62,NNW,332,5.0,13.0,94,0.01,,,0.01,weatherlink.com 1.10,2013-09-13 19:42:00,
2013-09-13 15:57:00,54.5,53.0,29.62,NE,38,4.0,11.0,94,0.01,,,0.01,weatherlink.com 1.10,2013-09-13 19:57:00,
2013-09-13 16:12:00,55.1,52.0,29.62,WNW,296,6.0,14.0,89,0.01,,,0.01,weatherlink.com 1.10,2013-09-13 20:12:00,
2013-09-13 16:27:00,54.6,52.0,29.63,North,11,3.0,12.0,90,0.01,,,0.01,weatherlink.com 1.10,2013-09-13 20:27:00,
2013-09-13 16:42:00,54.1,51.0,29.64,North,350,11.0,15.0,90,0.00,,,0.01,weatherlink.com 1.10,2013-09-13 20:42:00,
2013-09-13 16:57:00,53.6,51.0,29.64,NNE,15,12.0,12.0,91,0.00,,,0.01,weatherlink.com 1.10,2013-09-13 20:57:00,
2013-09-13 17:12:00,53.2,51.0,29.65,NW,319,7.0,13.0,93,0.00,,,0.01,weatherlink.com 1.10,2013-09-13 21:12:00,
2013-09-13 17:27:00,53.0,51.0,29.65,NNW,344,6.0,14.0,92,0.00,,,0.01,weatherlink.com 1.10,2013-09-13 21:27:00,
2013-09-13 17:42:00,52.8,51.0,29.66,NNW,340,5.0,11.0,92,0.00,,,0.01,weatherlink.com 1.10,2013-09-13 21:42:00,
2013-09-13 17:57:00,52.2,50.0,29.66,North,355,12.0,13.0,91,0.00,,,0.01,weatherlink.com 1.10,2013-09-13 21:57:00,
2013-09-13 18:12:00,51.4,50.0,29.67,North,349,6.0,13.0,94,0.00,,,0.01,weatherlink.com 1.10,2013-09-13 22:12:00,
2013-09-13 18:27:00,50.7,49.0,29.68,North,5,5.0,16.0,95,0.00,,,0.01,weatherlink.com 1.10,2013-09-13 22:27:00,
2013-09-13 18:43:00,50.3,49.0,29.69,NNW,338,7.0,18.0,95,0.00,,,0.01,weatherlink.com 1.10,2013-09-13 22:43:00,
2013-09-13 18:58:00,49.6,49.0,29.70,NNE,17,6.0,17.0,96,0.01,,,0.02,weatherlink.com 1.10,2013-09-13 22:58:00,
2013-09-13 19:13:00,48.9,48.0,29.70,NW,325,9.0,18.0,96,0.01,,,0.02,weatherlink.com 1.10,2013-09-13 23:13:00,
2013-09-13 19:28:00,48.4,48.0,29.70,North,5,9.0,20.0,97,0.01,,,0.02,weatherlink.com 1.10,2013-09-13 23:28:00,
2013-09-13 19:43:00,48.0,47.0,29.70,NNW,331,10.0,22.0,97,0.01,,,0.02,weatherlink.com 1.10,2013-09-13 23:43:00,
2013-09-13 19:58:00,47.8,47.0,29.70,North,5,13.0,19.0,98,0.00,,,0.02,weatherlink.com 1.10,2013-09-13 23:58:00,
2013-09-13 20:13:00,47.7,47.0,29.73,East,92,7.0,16.0,98,0.00,,,0.02,weatherlink.com 1.10,2013-09-14 00:13:00,
2013-09-13 20:28:00,47.2,46.0,29.75,North,355,3.0,13.0,97,0.00,,,0.02,weatherlink.com 1.10,2013-09-14 00:28:00,
2013-09-13 20:43:00,46.6,46.0,29.75,NNW,338,6.0,13.0,97,0.00,,,0.02,weatherlink.com 1.10,2013-09-14 00:43:00,
2013-09-13 20:58:00,46.3,45.0,29.75,NNW,334,7.0,12.0,96,0.00,,,0.02,weatherlink.com 1.10,2013-09-14 00:58:00,
2013-09-13 21:13:00,46.0,45.0,29.75,NW,325,6.0,13.0,96,0.00,,,0.02,weatherlink.com 1.10,2013-09-14 01:13:00,
2013-09-13 21:28:00,45.8,45.0,29.75,ENE,66,7.0,14.0,97,0.00,,,0.02,weatherlink.com 1.10,2013-09-14 01:28:00,
2013-09-13 21:43:00,45.9,45.0,29.75,North,5,10.0,15.0,96,0.00,,,0.02,weatherlink.com 1.10,2013-09-14 01:43:00,
2013-09-13 21:58:00,45.7,44.0,29.75,East,86,5.0,16.0,95,0.00,,,0.02,weatherlink.com 1.10,2013-09-14 01:58:00,
2013-09-13 22:13:00,45.7,44.0,29.76,NNE,23,15.0,17.0,95,0.00,,,0.02,weatherlink.com 1.10,2013-09-14 02:13:00,
2013-09-13 22:28:00,45.8,45.0,29.76,NNW,336,11.0,16.0,95,0.00,,,0.02,weatherlink.com 1.10,2013-09-14 02:28:00,
2013-09-13 22:43:00,45.7,44.0,29.77,NE,36,6.0,13.0,94,0.00,,,0.02,weatherlink.com 1.10,2013-09-14 02:43:00,
2013-09-13 22:58:00,45.4,44.0,29.76,NNE,20,3.0,12.0,94,0.00,,,0.02,weatherlink.com 1.10,2013-09-14 02:58:00,
2013-09-13 23:13:00,45.2,44.0,29.76,WNW,287,3.0,14.0,94,0.00,,,0.02,weatherlink.com 1.10,2013-09-14 03:13:00,
2013-09-13 23:28:00,44.9,44.0,29.76,SSE,166,3.0,19.0,95,0.00,,,0.02,weatherlink.com 1.10,2013-09-14 03:28:00,
2013-09-13 23:43:00,44.7,43.0,29.77,North,5,3.0,16.0,94,0.00,,,0.02,weatherlink.com 1.10,2013-09-14 03:43:00,
2013-09-13 23:58:00,44.6,43.0,29.77,NNW,331,6.0,15.0,94,0.00,,,0.02,weatherlink.com 1.10,2013-09-14 03:58:00,